Weather at Álamos Airport

Public forecast

Using degrees Celsius for public forecast. Weather courtesy of forecast.io.

Closest aviation weather report (METAR) to Álamos Airport

Closest report is Ciudad Obregón International Airport, 51.9 nm (96.1 km) WNW. Retrieved 2021/01/21 23:41 UTC (0 seconds ago):

MMCN 212341Z 18004KT 10SM BKN025 20/17 A2996 RMK SLP146 8/700 HZY

Closest aviation forecast (TAF) to Álamos Airport

Closest forecast is Ciudad Obregón International Airport, 51.9 nm (96.1 km) WNW. Retrieved 2021/01/21 18:18 UTC (5 hours ago):

TAF TAF MMCN 211715Z 2118/2218 23008KT 4SM -RA OVC010 BECMG 2121/2122 5SM HZ BKN020 OVC040 TEMPO 2122/2202 2SM -RA OVC010 FM220300 35005KT 5SM HZ BKN020 OVC040 TEMPO 2210/2214 2SM -RA BR BKN005 OVC010